sensor_id;sensor_type;location;lat;lon;timestamp;P1;durP1;ratioP1;P2;durP2;ratioP2
4521;SDS011;2273;48.464;11.926;2023-12-04T00:01:30;38.90;;;19.03;;
4521;SDS011;2273;48.464;11.926;2023-12-04T00:03:56;35.10;;;16.87;;
4521;SDS011;2273;48.464;11.926;2023-12-04T00:06:22;36.65;;;18.73;;
4521;SDS011;2273;48.464;11.926;2023-12-04T00:08:48;39.88;;;19.33;;
4521;SDS011;2273;48.464;11.926;2023-12-04T00:11:14;32.43;;;16.53;;
4521;SDS011;2273;48.464;11.926;2023-12-04T00:13:40;31.43;;;15.97;;
4521;SDS011;2273;48.464;11.926;2023-12-04T00:16:05;36.77;;;17.00;;
4521;SDS011;2273;48.464;11.926;2023-12-04T00:18:31;35.27;;;17.20;;
4521;SDS011;2273;48.464;11.926;2023-12-04T00:20:56;29.73;;;16.77;;
4521;SDS011;2273;48.464;11.926;2023-12-04T00:23:22;38.60;;;17.00;;
4521;SDS011;2273;48.464;11.926;2023-12-04T00:25:47;31.23;;;16.73;;
4521;SDS011;2273;48.464;11.926;2023-12-04T00:28:13;32.13;;;16.60;;
4521;SDS011;2273;48.464;11.926;2023-12-04T00:30:38;33.70;;;17.00;;
4521;SDS011;2273;48.464;11.926;2023-12-04T00:33:03;34.37;;;17.17;;
4521;SDS011;2273;48.464;11.926;2023-12-04T00:35:29;29.73;;;16.20;;
4521;SDS011;2273;48.464;11.926;2023-12-04T00:37:54;31.83;;;16.00;;
4521;SDS011;2273;48.464;11.926;2023-12-04T00:40:20;32.87;;;17.70;;
4521;SDS011;2273;48.464;11.926;2023-12-04T00:42:45;30.30;;;15.50;;
4521;SDS011;2273;48.464;11.926;2023-12-04T00:45:10;26.70;;;14.63;;
4521;SDS011;2273;48.464;11.926;2023-12-04T00:47:36;27.70;;;15.63;;
4521;SDS011;2273;48.464;11.926;2023-12-04T00:50:01;33.43;;;16.57;;
4521;SDS011;2273;48.464;11.926;2023-12-04T00:52:27;29.83;;;15.47;;
4521;SDS011;2273;48.464;11.926;2023-12-04T00:54:52;31.77;;;15.70;;
4521;SDS011;2273;48.464;11.926;2023-12-04T00:57:18;31.88;;;17.20;;
4521;SDS011;2273;48.464;11.926;2023-12-04T00:59:44;28.63;;;15.57;;
4521;SDS011;2273;48.464;11.926;2023-12-04T01:02:09;27.17;;;15.20;;
4521;SDS011;2273;48.464;11.926;2023-12-04T01:04:35;31.50;;;16.30;;
4521;SDS011;2273;48.464;11.926;2023-12-04T01:07:01;26.20;;;13.37;;
4521;SDS011;2273;48.464;11.926;2023-12-04T01:09:26;31.60;;;16.07;;
4521;SDS011;2273;48.464;11.926;2023-12-04T01:11:52;30.97;;;15.70;;
4521;SDS011;2273;48.464;11.926;2023-12-04T01:14:18;31.95;;;15.93;;
4521;SDS011;2273;48.464;11.926;2023-12-04T01:16:44;27.70;;;14.87;;
4521;SDS011;2273;48.464;11.926;2023-12-04T01:19:09;30.10;;;15.37;;
4521;SDS011;2273;48.464;11.926;2023-12-04T01:21:35;31.30;;;15.20;;
4521;SDS011;2273;48.464;11.926;2023-12-04T01:24:00;26.70;;;13.93;;
4521;SDS011;2273;48.464;11.926;2023-12-04T01:26:26;25.30;;;14.40;;
4521;SDS011;2273;48.464;11.926;2023-12-04T01:28:51;26.20;;;14.70;;
4521;SDS011;2273;48.464;11.926;2023-12-04T01:31:16;28.07;;;14.20;;
4521;SDS011;2273;48.464;11.926;2023-12-04T01:33:42;27.87;;;15.17;;
4521;SDS011;2273;48.464;11.926;2023-12-04T01:36:07;24.73;;;12.93;;
4521;SDS011;2273;48.464;11.926;2023-12-04T01:38:33;25.77;;;12.93;;
4521;SDS011;2273;48.464;11.926;2023-12-04T01:40:58;25.63;;;15.07;;
4521;SDS011;2273;48.464;11.926;2023-12-04T01:43:24;26.50;;;14.67;;
4521;SDS011;2273;48.464;11.926;2023-12-04T01:45:49;27.20;;;13.93;;
4521;SDS011;2273;48.464;11.926;2023-12-04T01:48:17;27.30;;;13.90;;
4521;SDS011;2273;48.464;11.926;2023-12-04T01:50:43;24.10;;;13.13;;
4521;SDS011;2273;48.464;11.926;2023-12-04T01:53:09;26.38;;;13.45;;
4521;SDS011;2273;48.464;11.926;2023-12-04T01:55:35;28.50;;;14.83;;
4521;SDS011;2273;48.464;11.926;2023-12-04T01:58:01;24.30;;;13.20;;
4521;SDS011;2273;48.464;11.926;2023-12-04T02:00:28;26.55;;;13.40;;
4521;SDS011;2273;48.464;11.926;2023-12-04T02:02:55;27.20;;;12.98;;
4521;SDS011;2273;48.464;11.926;2023-12-04T02:05:21;24.67;;;12.83;;
4521;SDS011;2273;48.464;11.926;2023-12-04T02:07:47;25.23;;;13.02;;
4521;SDS011;2273;48.464;11.926;2023-12-04T02:10:13;26.33;;;13.60;;
4521;SDS011;2273;48.464;11.926;2023-12-04T02:12:38;25.33;;;13.37;;
4521;SDS011;2273;48.464;11.926;2023-12-04T02:15:04;29.97;;;13.70;;
4521;SDS011;2273;48.464;11.926;2023-12-04T02:17:30;29.47;;;13.90;;
4521;SDS011;2273;48.464;11.926;2023-12-04T02:19:56;25.15;;;13.07;;
4521;SDS011;2273;48.464;11.926;2023-12-04T02:22:22;25.43;;;12.93;;
4521;SDS011;2273;48.464;11.926;2023-12-04T02:24:47;24.73;;;13.37;;
4521;SDS011;2273;48.464;11.926;2023-12-04T02:27:23;23.90;;;12.43;;
4521;SDS011;2273;48.464;11.926;2023-12-04T02:29:57;26.48;;;14.65;;
4521;SDS011;2273;48.464;11.926;2023-12-04T02:32:24;25.30;;;12.98;;
4521;SDS011;2273;48.464;11.926;2023-12-04T02:34:53;25.23;;;13.23;;
4521;SDS011;2273;48.464;11.926;2023-12-04T02:37:19;24.80;;;12.70;;
4521;SDS011;2273;48.464;11.926;2023-12-04T02:39:45;27.10;;;13.10;;
4521;SDS011;2273;48.464;11.926;2023-12-04T02:42:11;24.17;;;12.93;;
4521;SDS011;2273;48.464;11.926;2023-12-04T02:44:38;23.05;;;12.07;;
4521;SDS011;2273;48.464;11.926;2023-12-04T02:47:04;24.90;;;13.07;;
4521;SDS011;2273;48.464;11.926;2023-12-04T02:49:29;25.87;;;12.83;;
4521;SDS011;2273;48.464;11.926;2023-12-04T02:51:55;24.50;;;12.40;;
4521;SDS011;2273;48.464;11.926;2023-12-04T02:54:20;22.80;;;12.40;;
4521;SDS011;2273;48.464;11.926;2023-12-04T02:56:45;25.63;;;13.67;;
4521;SDS011;2273;48.464;11.926;2023-12-04T02:59:11;25.37;;;13.33;;
4521;SDS011;2273;48.464;11.926;2023-12-04T03:01:36;21.20;;;12.57;;
4521;SDS011;2273;48.464;11.926;2023-12-04T03:04:02;23.10;;;12.50;;
4521;SDS011;2273;48.464;11.926;2023-12-04T03:06:27;25.33;;;12.90;;
4521;SDS011;2273;48.464;11.926;2023-12-04T03:08:53;24.70;;;13.00;;
4521;SDS011;2273;48.464;11.926;2023-12-04T03:11:18;23.77;;;13.00;;
4521;SDS011;2273;48.464;11.926;2023-12-04T03:13:43;26.90;;;14.30;;
4521;SDS011;2273;48.464;11.926;2023-12-04T03:16:15;23.20;;;12.73;;
4521;SDS011;2273;48.464;11.926;2023-12-04T03:18:42;20.75;;;11.77;;
4521;SDS011;2273;48.464;11.926;2023-12-04T03:21:07;26.67;;;14.00;;
4521;SDS011;2273;48.464;11.926;2023-12-04T03:23:33;26.03;;;13.80;;
4521;SDS011;2273;48.464;11.926;2023-12-04T03:25:58;27.07;;;13.50;;
4521;SDS011;2273;48.464;11.926;2023-12-04T03:28:23;25.00;;;13.00;;
4521;SDS011;2273;48.464;11.926;2023-12-04T03:30:49;23.50;;;13.20;;
4521;SDS011;2273;48.464;11.926;2023-12-04T03:33:14;30.73;;;13.07;;
4521;SDS011;2273;48.464;11.926;2023-12-04T03:35:40;24.07;;;12.40;;
4521;SDS011;2273;48.464;11.926;2023-12-04T03:38:05;28.30;;;13.13;;
4521;SDS011;2273;48.464;11.926;2023-12-04T03:40:31;25.23;;;13.40;;
4521;SDS011;2273;48.464;11.926;2023-12-04T03:42:56;25.90;;;13.77;;
4521;SDS011;2273;48.464;11.926;2023-12-04T03:45:22;21.00;;;11.60;;
4521;SDS011;2273;48.464;11.926;2023-12-04T03:47:47;30.27;;;12.30;;
4521;SDS011;2273;48.464;11.926;2023-12-04T03:50:13;30.37;;;13.47;;
4521;SDS011;2273;48.464;11.926;2023-12-04T03:52:38;25.60;;;13.63;;
4521;SDS011;2273;48.464;11.926;2023-12-04T03:55:04;28.13;;;15.37;;
4521;SDS011;2273;48.464;11.926;2023-12-04T03:57:30;23.45;;;13.02;;
4521;SDS011;2273;48.464;11.926;2023-12-04T03:59:55;27.70;;;12.97;;
4521;SDS011;2273;48.464;11.926;2023-12-04T04:02:20;24.70;;;13.70;;
4521;SDS011;2273;48.464;11.926;2023-12-04T04:04:46;26.93;;;13.03;;
4521;SDS011;2273;48.464;11.926;2023-12-04T04:07:11;30.43;;;13.03;;
4521;SDS011;2273;48.464;11.926;2023-12-04T04:09:37;24.33;;;14.20;;
4521;SDS011;2273;48.464;11.926;2023-12-04T04:12:02;25.93;;;12.53;;
4521;SDS011;2273;48.464;11.926;2023-12-04T04:14:28;26.43;;;13.90;;
4521;SDS011;2273;48.464;11.926;2023-12-04T04:16:53;28.10;;;15.60;;
4521;SDS011;2273;48.464;11.926;2023-12-04T04:19:18;25.53;;;13.13;;
4521;SDS011;2273;48.464;11.926;2023-12-04T04:21:44;23.67;;;13.63;;
4521;SDS011;2273;48.464;11.926;2023-12-04T04:24:09;30.60;;;15.13;;
4521;SDS011;2273;48.464;11.926;2023-12-04T04:26:35;24.73;;;13.63;;
4521;SDS011;2273;48.464;11.926;2023-12-04T04:29:00;24.40;;;13.73;;
4521;SDS011;2273;48.464;11.926;2023-12-04T04:31:26;28.60;;;14.73;;
4521;SDS011;2273;48.464;11.926;2023-12-04T04:33:51;29.70;;;13.87;;
4521;SDS011;2273;48.464;11.926;2023-12-04T04:36:17;26.33;;;13.07;;
4521;SDS011;2273;48.464;11.926;2023-12-04T04:38:42;28.27;;;14.10;;
4521;SDS011;2273;48.464;11.926;2023-12-04T04:41:12;25.53;;;13.73;;
4521;SDS011;2273;48.464;11.926;2023-12-04T04:43:38;31.08;;;13.75;;
4521;SDS011;2273;48.464;11.926;2023-12-04T04:46:04;26.50;;;13.80;;
4521;SDS011;2273;48.464;11.926;2023-12-04T04:48:29;28.00;;;14.40;;
4521;SDS011;2273;48.464;11.926;2023-12-04T04:50:55;26.53;;;13.10;;
4521;SDS011;2273;48.464;11.926;2023-12-04T04:53:20;25.03;;;12.73;;
4521;SDS011;2273;48.464;11.926;2023-12-04T04:55:46;29.47;;;13.87;;
4521;SDS011;2273;48.464;11.926;2023-12-04T04:58:11;26.60;;;13.57;;
4521;SDS011;2273;48.464;11.926;2023-12-04T05:00:36;27.53;;;12.90;;
4521;SDS011;2273;48.464;11.926;2023-12-04T05:03:02;24.83;;;12.10;;
4521;SDS011;2273;48.464;11.926;2023-12-04T05:05:27;25.53;;;12.50;;
4521;SDS011;2273;48.464;11.926;2023-12-04T05:07:53;30.53;;;13.23;;
4521;SDS011;2273;48.464;11.926;2023-12-04T05:10:18;25.77;;;12.93;;
4521;SDS011;2273;48.464;11.926;2023-12-04T05:12:43;24.80;;;12.40;;
4521;SDS011;2273;48.464;11.926;2023-12-04T05:15:09;27.07;;;13.20;;
4521;SDS011;2273;48.464;11.926;2023-12-04T05:17:34;22.97;;;12.77;;
4521;SDS011;2273;48.464;11.926;2023-12-04T05:20:00;26.87;;;13.70;;
4521;SDS011;2273;48.464;11.926;2023-12-04T05:22:25;27.30;;;13.23;;
4521;SDS011;2273;48.464;11.926;2023-12-04T05:24:50;26.67;;;14.37;;
4521;SDS011;2273;48.464;11.926;2023-12-04T05:27:16;24.40;;;12.57;;
4521;SDS011;2273;48.464;11.926;2023-12-04T05:29:41;25.50;;;12.13;;
4521;SDS011;2273;48.464;11.926;2023-12-04T05:32:07;22.70;;;13.57;;
4521;SDS011;2273;48.464;11.926;2023-12-04T05:34:32;24.57;;;13.20;;
4521;SDS011;2273;48.464;11.926;2023-12-04T05:36:58;30.30;;;14.10;;
4521;SDS011;2273;48.464;11.926;2023-12-04T05:39:23;23.10;;;13.33;;
4521;SDS011;2273;48.464;11.926;2023-12-04T05:41:48;26.20;;;13.60;;
4521;SDS011;2273;48.464;11.926;2023-12-04T05:44:14;30.27;;;15.17;;
4521;SDS011;2273;48.464;11.926;2023-12-04T05:46:39;26.33;;;15.33;;
4521;SDS011;2273;48.464;11.926;2023-12-04T05:49:05;25.47;;;13.27;;
4521;SDS011;2273;48.464;11.926;2023-12-04T05:51:30;24.80;;;14.03;;
4521;SDS011;2273;48.464;11.926;2023-12-04T05:53:55;23.90;;;12.63;;
4521;SDS011;2273;48.464;11.926;2023-12-04T05:56:21;29.20;;;14.63;;
4521;SDS011;2273;48.464;11.926;2023-12-04T05:58:46;25.67;;;12.83;;
4521;SDS011;2273;48.464;11.926;2023-12-04T06:01:12;29.87;;;12.30;;
4521;SDS011;2273;48.464;11.926;2023-12-04T06:03:37;26.90;;;13.60;;
4521;SDS011;2273;48.464;11.926;2023-12-04T06:06:03;26.97;;;13.53;;
4521;SDS011;2273;48.464;11.926;2023-12-04T06:08:29;29.75;;;13.68;;
4521;SDS011;2273;48.464;11.926;2023-12-04T06:10:54;23.33;;;12.57;;
4521;SDS011;2273;48.464;11.926;2023-12-04T06:13:19;26.80;;;13.17;;
4521;SDS011;2273;48.464;11.926;2023-12-04T06:15:45;26.13;;;12.70;;
4521;SDS011;2273;48.464;11.926;2023-12-04T06:18:10;25.00;;;13.10;;
4521;SDS011;2273;48.464;11.926;2023-12-04T06:20:36;26.67;;;13.97;;
4521;SDS011;2273;48.464;11.926;2023-12-04T06:23:01;27.47;;;13.03;;
4521;SDS011;2273;48.464;11.926;2023-12-04T06:25:27;29.60;;;14.30;;
4521;SDS011;2273;48.464;11.926;2023-12-04T06:27:53;29.10;;;14.63;;
4521;SDS011;2273;48.464;11.926;2023-12-04T06:30:19;27.83;;;13.80;;
4521;SDS011;2273;48.464;11.926;2023-12-04T06:32:45;24.45;;;13.10;;
4521;SDS011;2273;48.464;11.926;2023-12-04T06:35:11;25.87;;;12.60;;
4521;SDS011;2273;48.464;11.926;2023-12-04T06:37:38;26.85;;;14.70;;
4521;SDS011;2273;48.464;11.926;2023-12-04T06:40:05;25.33;;;14.00;;
4521;SDS011;2273;48.464;11.926;2023-12-04T06:42:34;31.38;;;14.75;;
4521;SDS011;2273;48.464;11.926;2023-12-04T06:45:02;24.60;;;14.52;;
4521;SDS011;2273;48.464;11.926;2023-12-04T06:47:29;26.63;;;14.03;;
4521;SDS011;2273;48.464;11.926;2023-12-04T06:49:56;31.10;;;14.98;;
4521;SDS011;2273;48.464;11.926;2023-12-04T06:52:22;28.10;;;14.90;;
4521;SDS011;2273;48.464;11.926;2023-12-04T06:54:47;28.27;;;13.47;;
4521;SDS011;2273;48.464;11.926;2023-12-04T06:57:13;31.40;;;15.47;;
4521;SDS011;2273;48.464;11.926;2023-12-04T06:59:41;24.70;;;13.18;;
4521;SDS011;2273;48.464;11.926;2023-12-04T07:02:07;27.37;;;14.03;;
4521;SDS011;2273;48.464;11.926;2023-12-04T07:04:33;23.60;;;13.60;;
4521;SDS011;2273;48.464;11.926;2023-12-04T07:06:58;31.57;;;15.20;;
4521;SDS011;2273;48.464;11.926;2023-12-04T07:09:29;31.73;;;16.00;;
4521;SDS011;2273;48.464;11.926;2023-12-04T07:11:59;27.38;;;14.38;;
4521;SDS011;2273;48.464;11.926;2023-12-04T07:14:24;28.00;;;14.70;;
4521;SDS011;2273;48.464;11.926;2023-12-04T07:16:50;28.07;;;15.20;;
4521;SDS011;2273;48.464;11.926;2023-12-04T07:19:15;28.27;;;14.40;;
4521;SDS011;2273;48.464;11.926;2023-12-04T07:21:41;26.50;;;13.60;;
4521;SDS011;2273;48.464;11.926;2023-12-04T07:24:07;27.17;;;14.60;;
4521;SDS011;2273;48.464;11.926;2023-12-04T07:26:33;31.50;;;15.93;;
4521;SDS011;2273;48.464;11.926;2023-12-04T07:28:58;31.23;;;15.93;;
4521;SDS011;2273;48.464;11.926;2023-12-04T07:31:24;31.27;;;14.97;;
4521;SDS011;2273;48.464;11.926;2023-12-04T07:33:52;28.40;;;14.40;;
4521;SDS011;2273;48.464;11.926;2023-12-04T07:36:21;26.50;;;14.85;;
4521;SDS011;2273;48.464;11.926;2023-12-04T07:38:47;32.10;;;13.68;;
4521;SDS011;2273;48.464;11.926;2023-12-04T07:41:12;28.90;;;14.67;;
4521;SDS011;2273;48.464;11.926;2023-12-04T07:43:39;29.65;;;15.05;;
4521;SDS011;2273;48.464;11.926;2023-12-04T07:46:04;31.27;;;16.33;;
4521;SDS011;2273;48.464;11.926;2023-12-04T07:48:30;29.90;;;14.73;;
4521;SDS011;2273;48.464;11.926;2023-12-04T07:50:56;33.87;;;15.27;;
4521;SDS011;2273;48.464;11.926;2023-12-04T07:53:22;27.93;;;14.97;;
4521;SDS011;2273;48.464;11.926;2023-12-04T07:55:48;31.13;;;15.30;;
4521;SDS011;2273;48.464;11.926;2023-12-04T07:58:16;30.83;;;15.38;;
4521;SDS011;2273;48.464;11.926;2023-12-04T08:00:42;29.92;;;15.75;;
4521;SDS011;2273;48.464;11.926;2023-12-04T08:03:07;35.13;;;15.10;;
4521;SDS011;2273;48.464;11.926;2023-12-04T08:05:33;29.90;;;15.53;;
4521;SDS011;2273;48.464;11.926;2023-12-04T08:07:58;28.30;;;15.47;;
4521;SDS011;2273;48.464;11.926;2023-12-04T08:10:24;34.97;;;16.40;;
4521;SDS011;2273;48.464;11.926;2023-12-04T08:12:49;29.87;;;16.00;;
4521;SDS011;2273;48.464;11.926;2023-12-04T08:15:15;32.63;;;16.43;;
4521;SDS011;2273;48.464;11.926;2023-12-04T08:17:40;29.90;;;15.23;;
4521;SDS011;2273;48.464;11.926;2023-12-04T08:20:06;28.20;;;14.67;;
4521;SDS011;2273;48.464;11.926;2023-12-04T08:22:32;33.57;;;15.10;;
4521;SDS011;2273;48.464;11.926;2023-12-04T08:24:58;32.63;;;16.50;;
4521;SDS011;2273;48.464;11.926;2023-12-04T08:27:24;27.03;;;14.17;;
4521;SDS011;2273;48.464;11.926;2023-12-04T08:29:50;32.03;;;15.13;;
4521;SDS011;2273;48.464;11.926;2023-12-04T08:32:15;28.20;;;14.80;;
4521;SDS011;2273;48.464;11.926;2023-12-04T08:34:40;30.80;;;16.03;;
4521;SDS011;2273;48.464;11.926;2023-12-04T08:37:06;29.97;;;15.30;;
4521;SDS011;2273;48.464;11.926;2023-12-04T08:39:32;35.93;;;16.90;;
4521;SDS011;2273;48.464;11.926;2023-12-04T08:41:57;40.17;;;21.53;;
4521;SDS011;2273;48.464;11.926;2023-12-04T08:44:22;30.40;;;17.00;;
4521;SDS011;2273;48.464;11.926;2023-12-04T08:46:48;50.63;;;23.17;;
4521;SDS011;2273;48.464;11.926;2023-12-04T08:49:14;32.20;;;16.97;;
4521;SDS011;2273;48.464;11.926;2023-12-04T08:51:39;31.43;;;15.07;;
4521;SDS011;2273;48.464;11.926;2023-12-04T08:54:06;28.67;;;14.40;;
4521;SDS011;2273;48.464;11.926;2023-12-04T08:56:32;32.15;;;15.75;;
4521;SDS011;2273;48.464;11.926;2023-12-04T08:58:57;31.33;;;16.00;;
4521;SDS011;2273;48.464;11.926;2023-12-04T09:01:23;30.57;;;16.37;;
4521;SDS011;2273;48.464;11.926;2023-12-04T09:03:49;29.70;;;16.20;;
4521;SDS011;2273;48.464;11.926;2023-12-04T09:06:14;31.50;;;16.30;;
4521;SDS011;2273;48.464;11.926;2023-12-04T09:08:40;37.25;;;16.95;;
4521;SDS011;2273;48.464;11.926;2023-12-04T09:11:06;33.60;;;15.60;;
4521;SDS011;2273;48.464;11.926;2023-12-04T09:13:31;28.03;;;15.07;;
4521;SDS011;2273;48.464;11.926;2023-12-04T09:15:59;32.58;;;15.13;;
4521;SDS011;2273;48.464;11.926;2023-12-04T09:18:24;24.70;;;13.90;;
4521;SDS011;2273;48.464;11.926;2023-12-04T09:20:50;26.00;;;13.70;;
4521;SDS011;2273;48.464;11.926;2023-12-04T09:23:15;29.97;;;16.17;;
4521;SDS011;2273;48.464;11.926;2023-12-04T09:25:41;27.80;;;15.30;;
4521;SDS011;2273;48.464;11.926;2023-12-04T09:28:06;25.00;;;13.33;;
4521;SDS011;2273;48.464;11.926;2023-12-04T09:30:33;27.92;;;14.77;;
4521;SDS011;2273;48.464;11.926;2023-12-04T09:32:59;29.60;;;15.27;;
4521;SDS011;2273;48.464;11.926;2023-12-04T09:35:24;24.70;;;14.20;;
4521;SDS011;2273;48.464;11.926;2023-12-04T09:37:50;26.60;;;16.07;;
4521;SDS011;2273;48.464;11.926;2023-12-04T09:40:16;25.67;;;13.53;;
4521;SDS011;2273;48.464;11.926;2023-12-04T09:42:41;28.77;;;14.77;;
4521;SDS011;2273;48.464;11.926;2023-12-04T09:45:07;29.33;;;13.47;;
4521;SDS011;2273;48.464;11.926;2023-12-04T09:47:34;33.58;;;19.25;;
4521;SDS011;2273;48.464;11.926;2023-12-04T09:49:59;30.83;;;16.10;;
4521;SDS011;2273;48.464;11.926;2023-12-04T09:52:26;29.97;;;14.23;;
4521;SDS011;2273;48.464;11.926;2023-12-04T09:54:52;28.17;;;15.68;;
4521;SDS011;2273;48.464;11.926;2023-12-04T09:57:18;24.83;;;13.80;;
4521;SDS011;2273;48.464;11.926;2023-12-04T09:59:44;30.50;;;15.33;;
4521;SDS011;2273;48.464;11.926;2023-12-04T10:02:09;26.33;;;15.23;;
4521;SDS011;2273;48.464;11.926;2023-12-04T10:04:35;40.17;;;24.43;;
4521;SDS011;2273;48.464;11.926;2023-12-04T10:07:01;24.52;;;13.20;;
4521;SDS011;2273;48.464;11.926;2023-12-04T10:09:27;22.87;;;12.57;;
4521;SDS011;2273;48.464;11.926;2023-12-04T10:11:54;25.97;;;14.27;;
4521;SDS011;2273;48.464;11.926;2023-12-04T10:14:21;28.75;;;15.35;;
4521;SDS011;2273;48.464;11.926;2023-12-04T10:16:47;26.17;;;14.30;;
4521;SDS011;2273;48.464;11.926;2023-12-04T10:19:16;39.35;;;21.10;;
4521;SDS011;2273;48.464;11.926;2023-12-04T10:21:48;29.08;;;16.02;;
4521;SDS011;2273;48.464;11.926;2023-12-04T10:26:56;27.65;;;14.23;;
4521;SDS011;2273;48.464;11.926;2023-12-04T10:29:23;25.67;;;13.48;;
4521;SDS011;2273;48.464;11.926;2023-12-04T10:31:50;29.45;;;14.35;;
4521;SDS011;2273;48.464;11.926;2023-12-04T10:34:15;26.67;;;13.80;;
4521;SDS011;2273;48.464;11.926;2023-12-04T10:36:41;22.73;;;13.30;;
4521;SDS011;2273;48.464;11.926;2023-12-04T10:39:07;25.63;;;12.77;;
4521;SDS011;2273;48.464;11.926;2023-12-04T10:41:32;29.93;;;15.67;;
4521;SDS011;2273;48.464;11.926;2023-12-04T10:43:58;25.33;;;13.13;;
4521;SDS011;2273;48.464;11.926;2023-12-04T10:46:25;26.77;;;14.07;;
4521;SDS011;2273;48.464;11.926;2023-12-04T10:48:55;27.67;;;13.85;;
4521;SDS011;2273;48.464;11.926;2023-12-04T10:51:21;27.60;;;13.77;;
4521;SDS011;2273;48.464;11.926;2023-12-04T10:53:47;29.00;;;14.13;;
4521;SDS011;2273;48.464;11.926;2023-12-04T10:56:19;27.13;;;13.77;;
4521;SDS011;2273;48.464;11.926;2023-12-04T10:58:56;23.90;;;12.68;;
4521;SDS011;2273;48.464;11.926;2023-12-04T11:01:23;26.17;;;14.43;;
4521;SDS011;2273;48.464;11.926;2023-12-04T11:03:50;35.67;;;17.48;;
4521;SDS011;2273;48.464;11.926;2023-12-04T11:06:18;33.22;;;17.15;;
4521;SDS011;2273;48.464;11.926;2023-12-04T11:08:46;25.10;;;13.10;;
4521;SDS011;2273;48.464;11.926;2023-12-04T11:11:15;27.02;;;14.10;;
4521;SDS011;2273;48.464;11.926;2023-12-04T11:13:42;41.38;;;17.48;;
4521;SDS011;2273;48.464;11.926;2023-12-04T11:19:14;35.03;;;18.83;;
4521;SDS011;2273;48.464;11.926;2023-12-04T11:21:56;33.85;;;18.73;;
4521;SDS011;2273;48.464;11.926;2023-12-04T11:24:23;36.80;;;20.42;;
4521;SDS011;2273;48.464;11.926;2023-12-04T11:26:48;44.97;;;25.20;;
4521;SDS011;2273;48.464;11.926;2023-12-04T11:29:14;40.87;;;21.57;;
4521;SDS011;2273;48.464;11.926;2023-12-04T11:31:40;24.87;;;12.60;;
4521;SDS011;2273;48.464;11.926;2023-12-04T11:34:07;29.53;;;15.80;;
4521;SDS011;2273;48.464;11.926;2023-12-04T11:36:34;35.03;;;20.20;;
4521;SDS011;2273;48.464;11.926;2023-12-04T11:38:59;32.60;;;18.07;;
4521;SDS011;2273;48.464;11.926;2023-12-04T11:41:25;28.60;;;15.03;;
4521;SDS011;2273;48.464;11.926;2023-12-04T11:43:51;39.53;;;21.20;;
4521;SDS011;2273;48.464;11.926;2023-12-04T11:46:24;28.15;;;15.13;;
4521;SDS011;2273;48.464;11.926;2023-12-04T11:48:51;25.73;;;14.15;;
4521;SDS011;2273;48.464;11.926;2023-12-04T11:54:15;30.27;;;16.63;;
4521;SDS011;2273;48.464;11.926;2023-12-04T11:56:58;33.08;;;15.40;;
4521;SDS011;2273;48.464;11.926;2023-12-04T11:59:39;36.55;;;16.42;;
4521;SDS011;2273;48.464;11.926;2023-12-04T12:02:08;27.77;;;15.30;;
4521;SDS011;2273;48.464;11.926;2023-12-04T12:04:34;26.95;;;14.95;;
4521;SDS011;2273;48.464;11.926;2023-12-04T12:06:59;27.30;;;13.93;;
4521;SDS011;2273;48.464;11.926;2023-12-04T12:09:31;23.67;;;13.80;;
4521;SDS011;2273;48.464;11.926;2023-12-04T12:11:59;27.13;;;15.27;;
4521;SDS011;2273;48.464;11.926;2023-12-04T12:14:26;27.30;;;14.63;;
4521;SDS011;2273;48.464;11.926;2023-12-04T12:16:51;25.27;;;14.27;;
4521;SDS011;2273;48.464;11.926;2023-12-04T12:19:20;24.80;;;14.10;;
4521;SDS011;2273;48.464;11.926;2023-12-04T12:21:47;27.10;;;14.88;;
4521;SDS011;2273;48.464;11.926;2023-12-04T12:24:14;28.05;;;16.42;;
4521;SDS011;2273;48.464;11.926;2023-12-04T12:26:39;32.60;;;15.90;;
4521;SDS011;2273;48.464;11.926;2023-12-04T12:29:05;33.23;;;16.10;;
4521;SDS011;2273;48.464;11.926;2023-12-04T12:31:31;30.35;;;15.93;;
4521;SDS011;2273;48.464;11.926;2023-12-04T12:33:57;27.20;;;14.83;;
4521;SDS011;2273;48.464;11.926;2023-12-04T12:36:22;34.37;;;15.70;;
4521;SDS011;2273;48.464;11.926;2023-12-04T12:38:48;28.60;;;15.23;;
4521;SDS011;2273;48.464;11.926;2023-12-04T12:41:18;31.83;;;17.58;;
4521;SDS011;2273;48.464;11.926;2023-12-04T12:43:43;29.23;;;15.68;;
4521;SDS011;2273;48.464;11.926;2023-12-04T12:46:09;30.60;;;15.60;;
4521;SDS011;2273;48.464;11.926;2023-12-04T12:48:35;27.35;;;15.27;;
4521;SDS011;2273;48.464;11.926;2023-12-04T12:51:02;29.00;;;15.43;;
4521;SDS011;2273;48.464;11.926;2023-12-04T12:53:28;29.85;;;16.05;;
4521;SDS011;2273;48.464;11.926;2023-12-04T12:55:53;33.53;;;16.43;;
4521;SDS011;2273;48.464;11.926;2023-12-04T12:58:19;28.57;;;15.60;;
4521;SDS011;2273;48.464;11.926;2023-12-04T13:00:45;29.20;;;15.38;;
4521;SDS011;2273;48.464;11.926;2023-12-04T13:03:15;28.73;;;15.35;;
4521;SDS011;2273;48.464;11.926;2023-12-04T13:05:41;32.17;;;18.13;;
4521;SDS011;2273;48.464;11.926;2023-12-04T13:08:06;33.93;;;17.60;;
4521;SDS011;2273;48.464;11.926;2023-12-04T13:10:32;38.73;;;19.10;;
4521;SDS011;2273;48.464;11.926;2023-12-04T13:12:57;33.57;;;18.83;;
4521;SDS011;2273;48.464;11.926;2023-12-04T13:15:25;36.08;;;18.83;;
4521;SDS011;2273;48.464;11.926;2023-12-04T13:17:50;31.83;;;17.27;;
4521;SDS011;2273;48.464;11.926;2023-12-04T13:20:16;34.60;;;18.20;;
4521;SDS011;2273;48.464;11.926;2023-12-04T13:22:42;33.23;;;17.67;;
4521;SDS011;2273;48.464;11.926;2023-12-04T13:25:07;33.30;;;18.17;;
4521;SDS011;2273;48.464;11.926;2023-12-04T13:27:35;36.50;;;18.63;;
4521;SDS011;2273;48.464;11.926;2023-12-04T13:30:04;33.13;;;16.92;;
4521;SDS011;2273;48.464;11.926;2023-12-04T13:32:31;32.53;;;17.77;;
4521;SDS011;2273;48.464;11.926;2023-12-04T13:34:58;32.03;;;17.00;;
4521;SDS011;2273;48.464;11.926;2023-12-04T13:37:24;32.43;;;16.63;;
4521;SDS011;2273;48.464;11.926;2023-12-04T13:39:51;30.10;;;16.27;;
4521;SDS011;2273;48.464;11.926;2023-12-04T13:42:23;33.30;;;18.17;;
4521;SDS011;2273;48.464;11.926;2023-12-04T13:45:08;29.60;;;17.13;;
4521;SDS011;2273;48.464;11.926;2023-12-04T13:47:40;32.00;;;16.55;;
4521;SDS011;2273;48.464;11.926;2023-12-04T13:50:06;36.50;;;16.90;;
4521;SDS011;2273;48.464;11.926;2023-12-04T13:52:34;32.50;;;15.85;;
4521;SDS011;2273;48.464;11.926;2023-12-04T13:55:04;30.80;;;16.92;;
4521;SDS011;2273;48.464;11.926;2023-12-04T13:57:44;33.58;;;16.92;;
4521;SDS011;2273;48.464;11.926;2023-12-04T14:00:28;31.67;;;16.58;;
4521;SDS011;2273;48.464;11.926;2023-12-04T14:02:53;30.33;;;16.50;;
4521;SDS011;2273;48.464;11.926;2023-12-04T14:05:25;28.10;;;14.00;;
4521;SDS011;2273;48.464;11.926;2023-12-04T14:07:50;26.30;;;13.97;;
4521;SDS011;2273;48.464;11.926;2023-12-04T14:10:16;26.23;;;14.10;;
4521;SDS011;2273;48.464;11.926;2023-12-04T14:12:41;24.17;;;12.80;;
4521;SDS011;2273;48.464;11.926;2023-12-04T14:15:07;27.30;;;14.50;;
4521;SDS011;2273;48.464;11.926;2023-12-04T14:17:32;22.60;;;12.90;;
4521;SDS011;2273;48.464;11.926;2023-12-04T14:19:58;24.80;;;13.37;;
4521;SDS011;2273;48.464;11.926;2023-12-04T14:22:24;28.17;;;11.63;;
4521;SDS011;2273;48.464;11.926;2023-12-04T14:24:50;21.95;;;11.57;;
4521;SDS011;2273;48.464;11.926;2023-12-04T14:27:16;23.33;;;13.03;;
4521;SDS011;2273;48.464;11.926;2023-12-04T14:29:41;23.10;;;13.33;;
4521;SDS011;2273;48.464;11.926;2023-12-04T14:32:07;24.60;;;13.13;;
4521;SDS011;2273;48.464;11.926;2023-12-04T14:34:32;23.03;;;12.97;;
4521;SDS011;2273;48.464;11.926;2023-12-04T14:36:58;23.23;;;13.17;;